sensor_id;sensor_type;location;lat;lon;timestamp;P1;durP1;ratioP1;P2;durP2;ratioP2
16393;SDS011;8306;51.128;4.476;2023-10-08T00:01:32;4.63;;;2.90;;
16393;SDS011;8306;51.128;4.476;2023-10-08T00:03:59;3.63;;;2.77;;
16393;SDS011;8306;51.128;4.476;2023-10-08T00:06:25;3.27;;;2.97;;
16393;SDS011;8306;51.128;4.476;2023-10-08T00:08:52;3.80;;;2.80;;
16393;SDS011;8306;51.128;4.476;2023-10-08T00:11:18;4.07;;;2.80;;
16393;SDS011;8306;51.128;4.476;2023-10-08T00:13:45;2.97;;;2.70;;
16393;SDS011;8306;51.128;4.476;2023-10-08T00:16:12;3.43;;;2.57;;
16393;SDS011;8306;51.128;4.476;2023-10-08T00:18:38;4.87;;;3.00;;
16393;SDS011;8306;51.128;4.476;2023-10-08T00:21:04;3.30;;;2.77;;
16393;SDS011;8306;51.128;4.476;2023-10-08T00:23:37;3.63;;;2.80;;
16393;SDS011;8306;51.128;4.476;2023-10-08T00:26:03;3.20;;;2.90;;
16393;SDS011;8306;51.128;4.476;2023-10-08T00:28:29;4.67;;;2.80;;
16393;SDS011;8306;51.128;4.476;2023-10-08T00:30:56;3.20;;;2.90;;
16393;SDS011;8306;51.128;4.476;2023-10-08T00:33:22;3.63;;;3.20;;
16393;SDS011;8306;51.128;4.476;2023-10-08T00:35:49;3.30;;;2.97;;
16393;SDS011;8306;51.128;4.476;2023-10-08T00:38:15;4.43;;;3.00;;
16393;SDS011;8306;51.128;4.476;2023-10-08T00:40:42;3.30;;;2.87;;
16393;SDS011;8306;51.128;4.476;2023-10-08T00:43:08;3.63;;;3.33;;
16393;SDS011;8306;51.128;4.476;2023-10-08T00:45:35;4.33;;;2.60;;
16393;SDS011;8306;51.128;4.476;2023-10-08T00:48:04;3.63;;;2.70;;
16393;SDS011;8306;51.128;4.476;2023-10-08T00:50:31;4.17;;;3.43;;
16393;SDS011;8306;51.128;4.476;2023-10-08T00:52:57;4.37;;;3.20;;
16393;SDS011;8306;51.128;4.476;2023-10-08T00:55:24;4.97;;;3.00;;
16393;SDS011;8306;51.128;4.476;2023-10-08T00:57:51;3.33;;;2.80;;
16393;SDS011;8306;51.128;4.476;2023-10-08T01:00:17;4.17;;;3.00;;
16393;SDS011;8306;51.128;4.476;2023-10-08T01:02:43;3.30;;;2.47;;
16393;SDS011;8306;51.128;4.476;2023-10-08T01:05:09;5.27;;;2.80;;
16393;SDS011;8306;51.128;4.476;2023-10-08T01:07:36;2.87;;;2.60;;
16393;SDS011;8306;51.128;4.476;2023-10-08T01:10:02;3.53;;;2.90;;
16393;SDS011;8306;51.128;4.476;2023-10-08T01:12:29;3.97;;;3.30;;
16393;SDS011;8306;51.128;4.476;2023-10-08T01:14:58;5.97;;;3.57;;
16393;SDS011;8306;51.128;4.476;2023-10-08T01:17:25;4.07;;;2.87;;
16393;SDS011;8306;51.128;4.476;2023-10-08T01:19:51;3.60;;;3.30;;
16393;SDS011;8306;51.128;4.476;2023-10-08T01:22:20;3.20;;;2.90;;
16393;SDS011;8306;51.128;4.476;2023-10-08T01:24:50;3.07;;;2.77;;
16393;SDS011;8306;51.128;4.476;2023-10-08T01:27:17;4.77;;;3.27;;
16393;SDS011;8306;51.128;4.476;2023-10-08T01:29:43;3.50;;;2.70;;
16393;SDS011;8306;51.128;4.476;2023-10-08T01:32:09;4.53;;;3.20;;
16393;SDS011;8306;51.128;4.476;2023-10-08T01:34:36;2.97;;;2.70;;
16393;SDS011;8306;51.128;4.476;2023-10-08T01:37:02;4.30;;;3.30;;
16393;SDS011;8306;51.128;4.476;2023-10-08T01:39:29;4.00;;;2.90;;
16393;SDS011;8306;51.128;4.476;2023-10-08T01:41:55;4.17;;;3.10;;
16393;SDS011;8306;51.128;4.476;2023-10-08T01:44:22;3.80;;;3.17;;
16393;SDS011;8306;51.128;4.476;2023-10-08T01:46:48;4.87;;;3.00;;
16393;SDS011;8306;51.128;4.476;2023-10-08T01:49:15;4.07;;;2.73;;
16393;SDS011;8306;51.128;4.476;2023-10-08T01:51:41;3.77;;;2.90;;
16393;SDS011;8306;51.128;4.476;2023-10-08T01:54:13;3.30;;;3.00;;
16393;SDS011;8306;51.128;4.476;2023-10-08T01:56:41;3.50;;;2.90;;
16393;SDS011;8306;51.128;4.476;2023-10-08T01:59:12;3.93;;;3.40;;
16393;SDS011;8306;51.128;4.476;2023-10-08T02:01:39;4.13;;;2.90;;
16393;SDS011;8306;51.128;4.476;2023-10-08T02:04:05;4.07;;;2.80;;
16393;SDS011;8306;51.128;4.476;2023-10-08T02:06:35;3.33;;;3.00;;
16393;SDS011;8306;51.128;4.476;2023-10-08T02:09:01;4.03;;;2.63;;
16393;SDS011;8306;51.128;4.476;2023-10-08T02:11:30;4.03;;;2.90;;
16393;SDS011;8306;51.128;4.476;2023-10-08T02:13:57;3.90;;;3.20;;
16393;SDS011;8306;51.128;4.476;2023-10-08T02:16:23;4.07;;;3.63;;
16393;SDS011;8306;51.128;4.476;2023-10-08T02:18:50;4.03;;;3.13;;
16393;SDS011;8306;51.128;4.476;2023-10-08T02:21:16;5.13;;;3.30;;
16393;SDS011;8306;51.128;4.476;2023-10-08T02:23:43;4.03;;;3.17;;
16393;SDS011;8306;51.128;4.476;2023-10-08T02:26:09;5.50;;;3.63;;
16393;SDS011;8306;51.128;4.476;2023-10-08T02:28:36;4.37;;;3.10;;
16393;SDS011;8306;51.128;4.476;2023-10-08T02:31:02;3.93;;;3.30;;
16393;SDS011;8306;51.128;4.476;2023-10-08T02:33:29;4.83;;;3.83;;
16393;SDS011;8306;51.128;4.476;2023-10-08T02:35:55;3.53;;;3.10;;
16393;SDS011;8306;51.128;4.476;2023-10-08T02:38:22;4.13;;;3.57;;
16393;SDS011;8306;51.128;4.476;2023-10-08T02:40:48;5.27;;;3.60;;
16393;SDS011;8306;51.128;4.476;2023-10-08T02:43:15;3.77;;;3.13;;
16393;SDS011;8306;51.128;4.476;2023-10-08T02:45:41;4.30;;;3.60;;
16393;SDS011;8306;51.128;4.476;2023-10-08T02:48:08;4.30;;;3.33;;
16393;SDS011;8306;51.128;4.476;2023-10-08T02:50:34;4.13;;;3.13;;
16393;SDS011;8306;51.128;4.476;2023-10-08T02:53:00;5.57;;;3.63;;
16393;SDS011;8306;51.128;4.476;2023-10-08T02:55:27;5.33;;;3.67;;
16393;SDS011;8306;51.128;4.476;2023-10-08T02:57:54;5.80;;;3.50;;
16393;SDS011;8306;51.128;4.476;2023-10-08T03:00:20;4.20;;;3.60;;
16393;SDS011;8306;51.128;4.476;2023-10-08T03:02:46;4.27;;;3.63;;
16393;SDS011;8306;51.128;4.476;2023-10-08T03:05:13;4.33;;;3.17;;
16393;SDS011;8306;51.128;4.476;2023-10-08T03:07:39;4.07;;;3.60;;
16393;SDS011;8306;51.128;4.476;2023-10-08T03:10:06;7.03;;;3.80;;
16393;SDS011;8306;51.128;4.476;2023-10-08T03:12:32;5.50;;;3.80;;
16393;SDS011;8306;51.128;4.476;2023-10-08T03:14:59;6.23;;;4.10;;
16393;SDS011;8306;51.128;4.476;2023-10-08T03:17:28;4.77;;;3.70;;
16393;SDS011;8306;51.128;4.476;2023-10-08T03:19:54;4.27;;;3.40;;
16393;SDS011;8306;51.128;4.476;2023-10-08T03:22:21;4.47;;;3.70;;
16393;SDS011;8306;51.128;4.476;2023-10-08T03:24:47;3.60;;;3.30;;
16393;SDS011;8306;51.128;4.476;2023-10-08T03:27:14;3.93;;;3.60;;
16393;SDS011;8306;51.128;4.476;2023-10-08T03:29:43;4.47;;;3.40;;
16393;SDS011;8306;51.128;4.476;2023-10-08T03:32:09;4.27;;;3.67;;
16393;SDS011;8306;51.128;4.476;2023-10-08T03:34:36;4.93;;;3.60;;
16393;SDS011;8306;51.128;4.476;2023-10-08T03:37:02;3.47;;;3.07;;
16393;SDS011;8306;51.128;4.476;2023-10-08T03:39:29;4.53;;;3.63;;
16393;SDS011;8306;51.128;4.476;2023-10-08T03:41:55;3.57;;;3.10;;
16393;SDS011;8306;51.128;4.476;2023-10-08T03:44:24;4.83;;;3.73;;
16393;SDS011;8306;51.128;4.476;2023-10-08T03:46:51;4.97;;;3.47;;
16393;SDS011;8306;51.128;4.476;2023-10-08T03:49:17;4.43;;;3.43;;
16393;SDS011;8306;51.128;4.476;2023-10-08T03:51:46;6.17;;;4.07;;
16393;SDS011;8306;51.128;4.476;2023-10-08T03:54:13;3.57;;;3.20;;
16393;SDS011;8306;51.128;4.476;2023-10-08T03:56:42;4.20;;;3.80;;
16393;SDS011;8306;51.128;4.476;2023-10-08T03:59:08;4.90;;;3.80;;
16393;SDS011;8306;51.128;4.476;2023-10-08T04:01:53;4.93;;;4.20;;
16393;SDS011;8306;51.128;4.476;2023-10-08T04:04:19;4.83;;;4.10;;
16393;SDS011;8306;51.128;4.476;2023-10-08T04:06:46;4.70;;;4.00;;
16393;SDS011;8306;51.128;4.476;2023-10-08T04:09:15;4.43;;;3.50;;
16393;SDS011;8306;51.128;4.476;2023-10-08T04:11:44;5.13;;;3.70;;
16393;SDS011;8306;51.128;4.476;2023-10-08T04:14:20;4.43;;;4.03;;
16393;SDS011;8306;51.128;4.476;2023-10-08T04:16:46;4.17;;;3.77;;
16393;SDS011;8306;51.128;4.476;2023-10-08T04:19:13;4.70;;;3.60;;
16393;SDS011;8306;51.128;4.476;2023-10-08T04:21:39;4.47;;;3.97;;
16393;SDS011;8306;51.128;4.476;2023-10-08T04:24:06;4.20;;;3.80;;
16393;SDS011;8306;51.128;4.476;2023-10-08T04:26:32;4.23;;;3.70;;
16393;SDS011;8306;51.128;4.476;2023-10-08T04:28:59;4.20;;;3.57;;
16393;SDS011;8306;51.128;4.476;2023-10-08T04:31:25;3.93;;;3.50;;
16393;SDS011;8306;51.128;4.476;2023-10-08T04:33:55;4.40;;;3.63;;
16393;SDS011;8306;51.128;4.476;2023-10-08T04:36:21;5.57;;;4.23;;
16393;SDS011;8306;51.128;4.476;2023-10-08T04:38:47;5.83;;;4.13;;
16393;SDS011;8306;51.128;4.476;2023-10-08T04:41:14;4.27;;;3.87;;
16393;SDS011;8306;51.128;4.476;2023-10-08T04:43:40;4.60;;;4.07;;
16393;SDS011;8306;51.128;4.476;2023-10-08T04:46:07;4.90;;;3.67;;
16393;SDS011;8306;51.128;4.476;2023-10-08T04:48:33;5.00;;;4.30;;
16393;SDS011;8306;51.128;4.476;2023-10-08T04:51:00;6.87;;;4.50;;
16393;SDS011;8306;51.128;4.476;2023-10-08T04:53:32;4.97;;;4.10;;
16393;SDS011;8306;51.128;4.476;2023-10-08T04:56:05;4.33;;;3.80;;
16393;SDS011;8306;51.128;4.476;2023-10-08T04:58:32;4.77;;;3.80;;
16393;SDS011;8306;51.128;4.476;2023-10-08T05:00:57;5.13;;;4.10;;
16393;SDS011;8306;51.128;4.476;2023-10-08T05:03:24;4.83;;;3.90;;
16393;SDS011;8306;51.128;4.476;2023-10-08T05:05:50;4.97;;;4.17;;
16393;SDS011;8306;51.128;4.476;2023-10-08T05:08:17;4.63;;;4.20;;
16393;SDS011;8306;51.128;4.476;2023-10-08T05:10:43;4.53;;;4.13;;
16393;SDS011;8306;51.128;4.476;2023-10-08T05:13:10;4.97;;;3.77;;
16393;SDS011;8306;51.128;4.476;2023-10-08T05:15:36;4.97;;;4.47;;
16393;SDS011;8306;51.128;4.476;2023-10-08T05:18:03;5.07;;;3.73;;
16393;SDS011;8306;51.128;4.476;2023-10-08T05:20:35;4.20;;;3.80;;
16393;SDS011;8306;51.128;4.476;2023-10-08T05:23:14;5.97;;;4.03;;
16393;SDS011;8306;51.128;4.476;2023-10-08T05:25:47;4.60;;;4.20;;
16393;SDS011;8306;51.128;4.476;2023-10-08T05:28:31;4.73;;;4.20;;
16393;SDS011;8306;51.128;4.476;2023-10-08T05:30:58;4.23;;;3.83;;
16393;SDS011;8306;51.128;4.476;2023-10-08T05:33:33;4.93;;;4.43;;
16393;SDS011;8306;51.128;4.476;2023-10-08T05:36:17;5.17;;;4.60;;
16393;SDS011;8306;51.128;4.476;2023-10-08T05:38:44;7.33;;;3.93;;
16393;SDS011;8306;51.128;4.476;2023-10-08T05:41:26;5.80;;;4.27;;
16393;SDS011;8306;51.128;4.476;2023-10-08T05:43:54;6.63;;;4.67;;
16393;SDS011;8306;51.128;4.476;2023-10-08T05:46:21;4.87;;;4.20;;
16393;SDS011;8306;51.128;4.476;2023-10-08T05:48:54;4.63;;;3.93;;
16393;SDS011;8306;51.128;4.476;2023-10-08T05:51:32;6.10;;;4.10;;
16393;SDS011;8306;51.128;4.476;2023-10-08T05:54:16;5.17;;;3.83;;
16393;SDS011;8306;51.128;4.476;2023-10-08T05:57:07;4.50;;;3.80;;
16393;SDS011;8306;51.128;4.476;2023-10-08T05:59:35;5.13;;;4.37;;
16393;SDS011;8306;51.128;4.476;2023-10-08T06:02:19;5.80;;;4.23;;
16393;SDS011;8306;51.128;4.476;2023-10-08T06:05:01;4.57;;;4.00;;
16393;SDS011;8306;51.128;4.476;2023-10-08T06:07:37;4.20;;;3.80;;
16393;SDS011;8306;51.128;4.476;2023-10-08T06:10:20;6.70;;;4.43;;
16393;SDS011;8306;51.128;4.476;2023-10-08T06:12:52;5.90;;;4.13;;
16393;SDS011;8306;51.128;4.476;2023-10-08T06:15:18;6.50;;;4.40;;
16393;SDS011;8306;51.128;4.476;2023-10-08T06:17:45;4.40;;;3.93;;
16393;SDS011;8306;51.128;4.476;2023-10-08T06:20:23;4.77;;;3.80;;
16393;SDS011;8306;51.128;4.476;2023-10-08T06:22:50;4.80;;;4.20;;
16393;SDS011;8306;51.128;4.476;2023-10-08T06:25:16;5.20;;;4.27;;
16393;SDS011;8306;51.128;4.476;2023-10-08T06:27:43;4.03;;;3.63;;
16393;SDS011;8306;51.128;4.476;2023-10-08T06:30:09;5.77;;;4.50;;
16393;SDS011;8306;51.128;4.476;2023-10-08T06:32:36;4.57;;;3.90;;
16393;SDS011;8306;51.128;4.476;2023-10-08T06:35:02;4.03;;;3.63;;
16393;SDS011;8306;51.128;4.476;2023-10-08T06:37:29;5.30;;;3.90;;
16393;SDS011;8306;51.128;4.476;2023-10-08T06:39:55;4.63;;;4.23;;
16393;SDS011;8306;51.128;4.476;2023-10-08T06:42:22;6.57;;;4.50;;
16393;SDS011;8306;51.128;4.476;2023-10-08T06:44:48;4.67;;;4.20;;
16393;SDS011;8306;51.128;4.476;2023-10-08T06:47:15;5.63;;;3.93;;
16393;SDS011;8306;51.128;4.476;2023-10-08T06:49:42;5.73;;;3.93;;
16393;SDS011;8306;51.128;4.476;2023-10-08T06:52:10;4.30;;;3.90;;
16393;SDS011;8306;51.128;4.476;2023-10-08T06:54:37;5.23;;;4.73;;
16393;SDS011;8306;51.128;4.476;2023-10-08T06:57:03;5.17;;;4.30;;
16393;SDS011;8306;51.128;4.476;2023-10-08T06:59:30;3.90;;;3.60;;
16393;SDS011;8306;51.128;4.476;2023-10-08T07:01:56;7.00;;;4.43;;
16393;SDS011;8306;51.128;4.476;2023-10-08T07:04:23;4.30;;;3.90;;
16393;SDS011;8306;51.128;4.476;2023-10-08T07:06:49;4.00;;;3.60;;
16393;SDS011;8306;51.128;4.476;2023-10-08T07:09:16;5.13;;;3.90;;
16393;SDS011;8306;51.128;4.476;2023-10-08T07:11:49;5.97;;;4.17;;
16393;SDS011;8306;51.128;4.476;2023-10-08T07:14:15;5.17;;;4.23;;
16393;SDS011;8306;51.128;4.476;2023-10-08T07:16:41;4.80;;;4.20;;
16393;SDS011;8306;51.128;4.476;2023-10-08T07:19:08;4.83;;;4.10;;
16393;SDS011;8306;51.128;4.476;2023-10-08T07:21:34;5.30;;;4.00;;
16393;SDS011;8306;51.128;4.476;2023-10-08T07:24:15;5.63;;;4.33;;
16393;SDS011;8306;51.128;4.476;2023-10-08T07:26:41;3.53;;;3.23;;
16393;SDS011;8306;51.128;4.476;2023-10-08T07:29:08;5.50;;;4.23;;
16393;SDS011;8306;51.128;4.476;2023-10-08T07:31:35;4.23;;;3.83;;
16393;SDS011;8306;51.128;4.476;2023-10-08T07:34:01;4.23;;;3.80;;
16393;SDS011;8306;51.128;4.476;2023-10-08T07:36:27;4.67;;;4.20;;
16393;SDS011;8306;51.128;4.476;2023-10-08T07:38:54;5.53;;;3.77;;
16393;SDS011;8306;51.128;4.476;2023-10-08T07:41:20;6.90;;;4.10;;
16393;SDS011;8306;51.128;4.476;2023-10-08T07:43:47;5.50;;;3.97;;
16393;SDS011;8306;51.128;4.476;2023-10-08T07:46:16;4.97;;;3.73;;
16393;SDS011;8306;51.128;4.476;2023-10-08T07:48:42;4.57;;;4.10;;
16393;SDS011;8306;51.128;4.476;2023-10-08T07:51:09;4.60;;;4.20;;
16393;SDS011;8306;51.128;4.476;2023-10-08T07:53:35;4.60;;;4.20;;
16393;SDS011;8306;51.128;4.476;2023-10-08T07:56:05;5.10;;;4.10;;
16393;SDS011;8306;51.128;4.476;2023-10-08T07:58:37;6.17;;;4.60;;
16393;SDS011;8306;51.128;4.476;2023-10-08T08:01:04;5.53;;;4.20;;
16393;SDS011;8306;51.128;4.476;2023-10-08T08:03:30;5.10;;;4.60;;
16393;SDS011;8306;51.128;4.476;2023-10-08T08:05:56;5.37;;;4.87;;
16393;SDS011;8306;51.128;4.476;2023-10-08T08:08:23;6.40;;;4.77;;
16393;SDS011;8306;51.128;4.476;2023-10-08T08:10:49;6.40;;;5.10;;
16393;SDS011;8306;51.128;4.476;2023-10-08T08:13:16;5.87;;;4.90;;
16393;SDS011;8306;51.128;4.476;2023-10-08T08:15:42;6.50;;;5.10;;
16393;SDS011;8306;51.128;4.476;2023-10-08T08:18:09;5.60;;;5.10;;
16393;SDS011;8306;51.128;4.476;2023-10-08T08:20:35;5.23;;;4.73;;
16393;SDS011;8306;51.128;4.476;2023-10-08T08:23:02;6.43;;;5.33;;
16393;SDS011;8306;51.128;4.476;2023-10-08T08:25:28;5.47;;;4.90;;
16393;SDS011;8306;51.128;4.476;2023-10-08T08:28:00;5.77;;;4.93;;
16393;SDS011;8306;51.128;4.476;2023-10-08T08:30:27;5.83;;;4.50;;
16393;SDS011;8306;51.128;4.476;2023-10-08T08:32:53;6.20;;;4.47;;
16393;SDS011;8306;51.128;4.476;2023-10-08T08:35:20;5.93;;;5.03;;
16393;SDS011;8306;51.128;4.476;2023-10-08T08:37:46;7.00;;;5.47;;
16393;SDS011;8306;51.128;4.476;2023-10-08T08:40:13;7.30;;;4.80;;
16393;SDS011;8306;51.128;4.476;2023-10-08T08:42:45;5.73;;;4.97;;
16393;SDS011;8306;51.128;4.476;2023-10-08T08:45:20;8.20;;;5.00;;
16393;SDS011;8306;51.128;4.476;2023-10-08T08:47:46;5.60;;;4.93;;
16393;SDS011;8306;51.128;4.476;2023-10-08T08:50:12;7.30;;;5.13;;
16393;SDS011;8306;51.128;4.476;2023-10-08T08:52:39;6.37;;;5.70;;
16393;SDS011;8306;51.128;4.476;2023-10-08T08:55:06;5.53;;;5.00;;
16393;SDS011;8306;51.128;4.476;2023-10-08T08:57:32;6.90;;;5.20;;
16393;SDS011;8306;51.128;4.476;2023-10-08T08:59:58;5.53;;;5.00;;
16393;SDS011;8306;51.128;4.476;2023-10-08T09:02:25;5.40;;;4.90;;
16393;SDS011;8306;51.128;4.476;2023-10-08T09:04:51;5.37;;;4.87;;
16393;SDS011;8306;51.128;4.476;2023-10-08T09:07:21;6.50;;;5.22;;
16393;SDS011;8306;51.128;4.476;2023-10-08T09:09:47;6.17;;;5.57;;
16393;SDS011;8306;51.128;4.476;2023-10-08T09:12:14;7.20;;;5.60;;
16393;SDS011;8306;51.128;4.476;2023-10-08T09:14:41;7.32;;;5.62;;
16393;SDS011;8306;51.128;4.476;2023-10-08T09:17:07;5.28;;;4.78;;
16393;SDS011;8306;51.128;4.476;2023-10-08T09:19:36;6.53;;;5.65;;
16393;SDS011;8306;51.128;4.476;2023-10-08T09:22:08;5.60;;;5.00;;
16393;SDS011;8306;51.128;4.476;2023-10-08T09:24:32;6.47;;;5.75;;
16393;SDS011;8306;51.128;4.476;2023-10-08T09:26:58;4.80;;;4.35;;
16393;SDS011;8306;51.128;4.476;2023-10-08T09:29:24;5.47;;;4.97;;
16393;SDS011;8306;51.128;4.476;2023-10-08T09:31:52;5.80;;;5.20;;
16393;SDS011;8306;51.128;4.476;2023-10-08T09:34:17;5.70;;;5.10;;
16393;SDS011;8306;51.128;4.476;2023-10-08T09:36:44;9.18;;;6.35;;
16393;SDS011;8306;51.128;4.476;2023-10-08T09:39:10;7.15;;;5.80;;
16393;SDS011;8306;51.128;4.476;2023-10-08T09:41:37;6.32;;;5.43;;
16393;SDS011;8306;51.128;4.476;2023-10-08T09:44:03;7.05;;;6.20;;
16393;SDS011;8306;51.128;4.476;2023-10-08T09:46:33;6.28;;;5.68;;
16393;SDS011;8306;51.128;4.476;2023-10-08T09:48:58;6.15;;;5.43;;
16393;SDS011;8306;51.128;4.476;2023-10-08T09:51:23;6.37;;;5.75;;
16393;SDS011;8306;51.128;4.476;2023-10-08T09:53:52;7.10;;;6.40;;
16393;SDS011;8306;51.128;4.476;2023-10-08T09:56:21;7.55;;;6.22;;
16393;SDS011;8306;51.128;4.476;2023-10-08T09:58:47;6.57;;;5.93;;
16393;SDS011;8306;51.128;4.476;2023-10-08T10:01:14;7.00;;;6.25;;
16393;SDS011;8306;51.128;4.476;2023-10-08T10:03:40;9.63;;;6.65;;
16393;SDS011;8306;51.128;4.476;2023-10-08T10:06:11;7.95;;;5.65;;
16393;SDS011;8306;51.128;4.476;2023-10-08T10:08:33;7.20;;;6.15;;
16393;SDS011;8306;51.128;4.476;2023-10-08T10:11:00;10.38;;;7.18;;
16393;SDS011;8306;51.128;4.476;2023-10-08T10:13:33;12.65;;;6.70;;
16393;SDS011;8306;51.128;4.476;2023-10-08T10:15:56;11.32;;;6.40;;
16393;SDS011;8306;51.128;4.476;2023-10-08T10:20:52;6.85;;;6.15;;
16393;SDS011;8306;51.128;4.476;2023-10-08T10:23:36;7.37;;;6.68;;
16393;SDS011;8306;51.128;4.476;2023-10-08T10:26:24;7.40;;;6.68;;
16393;SDS011;8306;51.128;4.476;2023-10-08T10:29:35;8.18;;;7.35;;
16393;SDS011;8306;51.128;4.476;2023-10-08T10:31:39;8.52;;;6.95;;
16393;SDS011;8306;51.128;4.476;2023-10-08T10:34:06;7.55;;;6.75;;
16393;SDS011;8306;51.128;4.476;2023-10-08T10:36:32;7.50;;;6.78;;
16393;SDS011;8306;51.128;4.476;2023-10-08T10:38:58;13.55;;;7.28;;
16393;SDS011;8306;51.128;4.476;2023-10-08T10:41:25;10.10;;;7.72;;
16393;SDS011;8306;51.128;4.476;2023-10-08T10:43:51;7.22;;;6.53;;
16393;SDS011;8306;51.128;4.476;2023-10-08T10:46:18;7.57;;;6.28;;
16393;SDS011;8306;51.128;4.476;2023-10-08T10:48:47;6.90;;;6.25;;
16393;SDS011;8306;51.128;4.476;2023-10-08T10:51:14;8.07;;;7.28;;
16393;SDS011;8306;51.128;4.476;2023-10-08T10:53:40;7.47;;;6.78;;
16393;SDS011;8306;51.128;4.476;2023-10-08T10:56:22;8.07;;;7.05;;
16393;SDS011;8306;51.128;4.476;2023-10-08T10:58:48;7.22;;;6.47;;
16393;SDS011;8306;51.128;4.476;2023-10-08T11:01:15;9.23;;;6.32;;
16393;SDS011;8306;51.128;4.476;2023-10-08T11:03:48;7.53;;;6.50;;
16393;SDS011;8306;51.128;4.476;2023-10-08T11:06:13;7.12;;;6.43;;
16393;SDS011;8306;51.128;4.476;2023-10-08T11:08:40;7.85;;;7.10;;
16393;SDS011;8306;51.128;4.476;2023-10-08T11:11:06;7.75;;;6.97;;
16393;SDS011;8306;51.128;4.476;2023-10-08T11:13:33;8.27;;;6.97;;
16393;SDS011;8306;51.128;4.476;2023-10-08T11:16:02;7.53;;;6.60;;
16393;SDS011;8306;51.128;4.476;2023-10-08T11:18:26;7.00;;;6.30;;
16393;SDS011;8306;51.128;4.476;2023-10-08T11:21:04;7.55;;;6.32;;
16393;SDS011;8306;51.128;4.476;2023-10-08T11:23:35;7.03;;;6.03;;
16393;SDS011;8306;51.128;4.476;2023-10-08T11:25:58;8.20;;;6.63;;
16393;SDS011;8306;51.128;4.476;2023-10-08T11:28:26;6.55;;;5.95;;
16393;SDS011;8306;51.128;4.476;2023-10-08T11:30:53;11.43;;;7.13;;
16393;SDS011;8306;51.128;4.476;2023-10-08T11:33:19;6.95;;;6.15;;
16393;SDS011;8306;51.128;4.476;2023-10-08T11:35:55;7.50;;;6.57;;
16393;SDS011;8306;51.128;4.476;2023-10-08T11:38:24;7.03;;;6.30;;
16393;SDS011;8306;51.128;4.476;2023-10-08T11:40:50;7.43;;;6.28;;
16393;SDS011;8306;51.128;4.476;2023-10-08T11:43:17;7.65;;;6.70;;
16393;SDS011;8306;51.128;4.476;2023-10-08T11:45:43;6.63;;;5.73;;
16393;SDS011;8306;51.128;4.476;2023-10-08T11:48:15;7.35;;;6.68;;
16393;SDS011;8306;51.128;4.476;2023-10-08T11:50:48;9.00;;;6.15;;
16393;SDS011;8306;51.128;4.476;2023-10-08T11:53:14;8.20;;;6.67;;
16393;SDS011;8306;51.128;4.476;2023-10-08T11:55:40;6.73;;;5.73;;
16393;SDS011;8306;51.128;4.476;2023-10-08T11:58:07;8.33;;;6.47;;
16393;SDS011;8306;51.128;4.476;2023-10-08T12:00:37;5.55;;;5.05;;
16393;SDS011;8306;51.128;4.476;2023-10-08T12:03:15;8.00;;;6.28;;
16393;SDS011;8306;51.128;4.476;2023-10-08T12:05:38;6.60;;;5.85;;
16393;SDS011;8306;51.128;4.476;2023-10-08T12:08:07;7.40;;;6.05;;
16393;SDS011;8306;51.128;4.476;2023-10-08T12:10:34;7.37;;;6.10;;
16393;SDS011;8306;51.128;4.476;2023-10-08T12:13:00;7.60;;;5.72;;
16393;SDS011;8306;51.128;4.476;2023-10-08T12:15:27;8.97;;;6.23;;
16393;SDS011;8306;51.128;4.476;2023-10-08T12:17:53;8.43;;;5.73;;
16393;SDS011;8306;51.128;4.476;2023-10-08T12:20:38;6.30;;;5.70;;
16393;SDS011;8306;51.128;4.476;2023-10-08T12:23:01;9.43;;;5.90;;
16393;SDS011;8306;51.128;4.476;2023-10-08T12:25:27;7.97;;;6.07;;
16393;SDS011;8306;51.128;4.476;2023-10-08T12:27:54;6.37;;;5.77;;
16393;SDS011;8306;51.128;4.476;2023-10-08T12:30:20;5.87;;;5.37;;
16393;SDS011;8306;51.128;4.476;2023-10-08T12:32:47;7.80;;;6.20;;
16393;SDS011;8306;51.128;4.476;2023-10-08T12:35:13;6.07;;;5.47;;
16393;SDS011;8306;51.128;4.476;2023-10-08T12:37:40;6.63;;;6.03;;
16393;SDS011;8306;51.128;4.476;2023-10-08T12:40:06;7.07;;;5.80;;
16393;SDS011;8306;51.128;4.476;2023-10-08T12:42:38;7.70;;;5.67;;
16393;SDS011;8306;51.128;4.476;2023-10-08T12:45:05;6.93;;;5.53;;
16393;SDS011;8306;51.128;4.476;2023-10-08T12:47:32;8.17;;;6.20;;
16393;SDS011;8306;51.128;4.476;2023-10-08T12:49:58;8.20;;;6.63;;
16393;SDS011;8306;51.128;4.476;2023-10-08T12:52:25;7.53;;;5.83;;
16393;SDS011;8306;51.128;4.476;2023-10-08T12:54:51;6.90;;;5.57;;
16393;SDS011;8306;51.128;4.476;2023-10-08T12:57:17;7.13;;;6.43;;
16393;SDS011;8306;51.128;4.476;2023-10-08T12:59:44;7.27;;;6.50;;
16393;SDS011;8306;51.128;4.476;2023-10-08T13:02:11;5.50;;;5.00;;
16393;SDS011;8306;51.128;4.476;2023-10-08T13:04:37;6.23;;;5.63;;
16393;SDS011;8306;51.128;4.476;2023-10-08T13:07:03;6.20;;;5.60;;
16393;SDS011;8306;51.128;4.476;2023-10-08T13:09:30;9.47;;;6.00;;
16393;SDS011;8306;51.128;4.476;2023-10-08T13:11:56;6.80;;;6.10;;
16393;SDS011;8306;51.128;4.476;2023-10-08T13:14:23;6.03;;;5.43;;
16393;SDS011;8306;51.128;4.476;2023-10-08T13:16:49;8.53;;;6.30;;
16393;SDS011;8306;51.128;4.476;2023-10-08T13:19:16;6.37;;;5.77;;
16393;SDS011;8306;51.128;4.476;2023-10-08T13:21:42;6.80;;;6.07;;
16393;SDS011;8306;51.128;4.476;2023-10-08T13:24:09;8.80;;;6.37;;
16393;SDS011;8306;51.128;4.476;2023-10-08T13:26:35;6.90;;;6.00;;
16393;SDS011;8306;51.128;4.476;2023-10-08T13:29:02;6.80;;;5.10;;
16393;SDS011;8306;51.128;4.476;2023-10-08T13:31:28;6.10;;;5.50;;
16393;SDS011;8306;51.128;4.476;2023-10-08T13:33:55;6.27;;;5.67;;
16393;SDS011;8306;51.128;4.476;2023-10-08T13:36:21;6.73;;;5.63;;
16393;SDS011;8306;51.128;4.476;2023-10-08T13:38:48;5.87;;;5.23;;
16393;SDS011;8306;51.128;4.476;2023-10-08T13:41:14;8.60;;;6.40;;
16393;SDS011;8306;51.128;4.476;2023-10-08T13:43:44;6.33;;;5.67;;
16393;SDS011;8306;51.128;4.476;2023-10-08T13:46:07;6.37;;;5.70;;
16393;SDS011;8306;51.128;4.476;2023-10-08T13:48:34;6.60;;;5.60;;
16393;SDS011;8306;51.128;4.476;2023-10-08T13:51:00;8.27;;;6.23;;
16393;SDS011;8306;51.128;4.476;2023-10-08T13:53:28;8.13;;;5.97;;
16393;SDS011;8306;51.128;4.476;2023-10-08T13:55:58;7.83;;;5.97;;
16393;SDS011;8306;51.128;4.476;2023-10-08T13:58:21;6.40;;;5.03;;
16393;SDS011;8306;51.128;4.476;2023-10-08T14:00:47;5.93;;;5.30;;
16393;SDS011;8306;51.128;4.476;2023-10-08T14:03:14;7.47;;;5.37;;
16393;SDS011;8306;51.128;4.476;2023-10-08T14:05:40;5.90;;;5.43;;
16393;SDS011;8306;51.128;4.476;2023-10-08T14:08:07;6.17;;;5.57;;
16393;SDS011;8306;51.128;4.476;2023-10-08T14:10:33;6.70;;;5.87;;
16393;SDS011;8306;51.128;4.476;2023-10-08T14:13:00;5.80;;;5.03;;
16393;SDS011;8306;51.128;4.476;2023-10-08T14:15:26;8.57;;;5.50;;
16393;SDS011;8306;51.128;4.476;2023-10-08T14:17:53;6.70;;;6.00;;
16393;SDS011;8306;51.128;4.476;2023-10-08T14:20:19;6.37;;;5.67;;
16393;SDS011;8306;51.128;4.476;2023-10-08T14:22:48;7.97;;;5.80;;
16393;SDS011;8306;51.128;4.476;2023-10-08T14:25:18;6.57;;;5.70;;
16393;SDS011;8306;51.128;4.476;2023-10-08T14:27:44;6.57;;;5.97;;
16393;SDS011;8306;51.128;4.476;2023-10-08T14:30:11;5.87;;;5.27;;
16393;SDS011;8306;51.128;4.476;2023-10-08T14:32:37;6.30;;;5.37;;
16393;SDS011;8306;51.128;4.476;2023-10-08T14:35:04;6.43;;;5.80;;
16393;SDS011;8306;51.128;4.476;2023-10-08T14:37:48;8.40;;;5.63;;
16393;SDS011;8306;51.128;4.476;2023-10-08T14:40:33;6.10;;;5.13;;
16393;SDS011;8306;51.128;4.476;2023-10-08T14:43:17;8.00;;;5.87;;
16393;SDS011;8306;51.128;4.476;2023-10-08T14:45:44;5.97;;;5.37;;
16393;SDS011;8306;51.128;4.476;2023-10-08T14:48:10;5.77;;;5.17;;
16393;SDS011;8306;51.128;4.476;2023-10-08T14:50:37;8.03;;;5.90;;
16393;SDS011;8306;51.128;4.476;2023-10-08T14:53:03;5.77;;;5.23;;
16393;SDS011;8306;51.128;4.476;2023-10-08T14:55:30;6.17;;;5.57;;
16393;SDS011;8306;51.128;4.476;2023-10-08T14:57:56;8.03;;;6.27;;
16393;SDS011;8306;51.128;4.476;2023-10-08T15:00:23;5.73;;;5.23;;
16393;SDS011;8306;51.128;4.476;2023-10-08T15:02:52;5.83;;;5.23;;
16393;SDS011;8306;51.128;4.476;2023-10-08T15:05:22;5.93;;;5.43;;
16393;SDS011;8306;51.128;4.476;2023-10-08T15:07:51;6.73;;;5.10;;